createdAt,value
2023-03-20T00:02:00.151Z,37.27
2023-03-20T00:04:30.824Z,36.47
2023-03-20T00:07:00.487Z,36.67
2023-03-20T00:09:28.595Z,35.97
2023-03-20T00:11:57.008Z,38.13
2023-03-20T00:14:26.380Z,35.17
2023-03-20T00:16:54.534Z,33.37
2023-03-20T00:19:24.347Z,36.33
2023-03-20T00:21:53.924Z,38.40
2023-03-20T00:24:24.281Z,34.93
2023-03-20T00:26:53.606Z,34.37
2023-03-20T00:29:24.114Z,33.97
2023-03-20T00:31:52.538Z,37.30
2023-03-20T00:34:23.524Z,35.90
2023-03-20T00:36:51.722Z,38.67
2023-03-20T00:39:20.019Z,35.70
2023-03-20T00:41:51.708Z,36.77
2023-03-20T00:44:22.564Z,37.03
2023-03-20T00:46:52.271Z,34.90
2023-03-20T00:49:22.351Z,34.67
2023-03-20T00:51:50.367Z,33.10
2023-03-20T00:54:19.236Z,33.70
2023-03-20T00:56:51.386Z,33.23
2023-03-20T00:59:22.676Z,34.30
2023-03-20T01:01:51.087Z,33.93
2023-03-20T01:04:21.180Z,34.10
2023-03-20T01:06:49.583Z,32.70
2023-03-20T01:09:18.003Z,33.37
2023-03-20T01:11:46.935Z,33.20
2023-03-20T01:14:18.039Z,32.17
2023-03-20T01:16:46.133Z,33.80
2023-03-20T01:19:16.963Z,33.37
2023-03-20T01:21:45.398Z,33.20
2023-03-20T01:24:13.484Z,32.60
2023-03-20T01:26:43.216Z,32.57
2023-03-20T01:29:20.177Z,33.63
2023-03-20T01:31:48.954Z,29.47
2023-03-20T01:34:19.262Z,32.27
2023-03-20T01:36:55.387Z,32.83
2023-03-20T01:39:24.581Z,32.63
2023-03-20T01:41:54.238Z,34.23
2023-03-20T01:44:26.060Z,31.17
2023-03-20T01:46:58.151Z,31.10
2023-03-20T01:50:04.142Z,31.70
2023-03-20T01:52:32.240Z,28.93
2023-03-20T01:55:00.322Z,29.00
2023-03-20T01:57:28.638Z,30.10
2023-03-20T02:00:03.166Z,27.43
2023-03-20T02:02:43.824Z,25.67
2023-03-20T02:05:13.034Z,30.67
2023-03-20T02:07:41.726Z,28.40
2023-03-20T02:10:13.854Z,28.57
2023-03-20T02:13:11.225Z,26.37
2023-03-20T02:16:04.188Z,24.80
2023-03-20T02:18:57.153Z,27.63
2023-03-20T02:21:54.281Z,26.27
2023-03-20T02:24:42.277Z,25.57
2023-03-20T02:27:16.062Z,28.13
2023-03-20T02:30:14.532Z,27.77
2023-03-20T02:33:12.457Z,25.30
2023-03-20T02:36:03.966Z,26.60
2023-03-20T02:39:06.792Z,30.63
2023-03-20T02:41:39.928Z,26.47
2023-03-20T02:44:10.336Z,26.47
2023-03-20T02:46:45.970Z,26.33
2023-03-20T02:49:29.785Z,27.73
2023-03-20T02:52:03.470Z,28.33
2023-03-20T02:54:38.841Z,29.43
2023-03-20T02:57:09.674Z,26.77
2023-03-20T02:59:43.218Z,25.87
2023-03-20T03:02:15.388Z,26.80
2023-03-20T03:04:46.516Z,27.90
2023-03-20T03:07:15.924Z,29.30
2023-03-20T03:09:50.194Z,27.23
2023-03-20T03:12:21.337Z,27.47
2023-03-20T03:14:51.196Z,25.40
2023-03-20T03:17:20.126Z,27.47
2023-03-20T03:19:50.947Z,27.53
2023-03-20T03:22:19.417Z,26.17
2023-03-20T03:24:50.074Z,27.20
2023-03-20T03:27:24.784Z,31.13
2023-03-20T03:29:55.855Z,28.07
2023-03-20T03:32:27.742Z,26.77
2023-03-20T03:34:56.156Z,30.30
2023-03-20T03:37:30.194Z,29.67
2023-03-20T03:40:06.435Z,27.00
2023-03-20T03:42:36.942Z,27.90
2023-03-20T03:45:11.296Z,29.47
2023-03-20T03:47:41.710Z,28.47
2023-03-20T03:50:12.850Z,25.70
2023-03-20T03:52:41.858Z,26.83
2023-03-20T03:55:12.647Z,29.47
2023-03-20T03:58:04.712Z,31.33
2023-03-20T04:00:33.628Z,30.40
2023-03-20T04:03:01.620Z,26.33
2023-03-20T04:05:31.982Z,26.87
2023-03-20T04:08:01.903Z,29.37
2023-03-20T04:10:31.557Z,30.67
2023-03-20T04:12:59.595Z,27.20
2023-03-20T04:15:28.365Z,28.80
2023-03-20T04:17:56.802Z,30.70
2023-03-20T04:20:26.073Z,28.40
2023-03-20T04:22:54.181Z,28.17
2023-03-20T04:25:24.374Z,30.70
2023-03-20T04:27:56.374Z,28.47
2023-03-20T04:30:48.268Z,25.77
2023-03-20T04:33:39.485Z,28.70
2023-03-20T04:36:23.262Z,29.57
2023-03-20T04:38:55.818Z,28.27
2023-03-20T04:41:25.709Z,30.50
2023-03-20T04:43:57.912Z,28.90
2023-03-20T04:46:26.440Z,27.07
2023-03-20T04:48:54.441Z,31.20
2023-03-20T04:51:23.218Z,29.20
2023-03-20T04:53:54.545Z,25.40
2023-03-20T04:56:22.506Z,28.80
2023-03-20T04:58:51.632Z,27.80
2023-03-20T05:01:23.884Z,24.37
2023-03-20T05:03:52.229Z,25.83
2023-03-20T05:06:20.464Z,26.83
2023-03-20T05:08:48.557Z,24.37
2023-03-20T05:11:19.249Z,25.90
2023-03-20T05:14:06.753Z,27.77
2023-03-20T05:16:45.841Z,24.77
2023-03-20T05:19:32.363Z,26.43
2023-03-20T05:22:09.120Z,24.67
2023-03-20T05:24:52.698Z,25.20
2023-03-20T05:27:46.083Z,24.80
2023-03-20T05:30:30.537Z,24.67
2023-03-20T05:33:22.891Z,25.70
2023-03-20T05:36:03.805Z,27.70
2023-03-20T05:38:57.888Z,25.93
2023-03-20T05:41:55.448Z,30.73
2023-03-20T05:44:49.601Z,28.77
2023-03-20T05:47:40.735Z,26.17
2023-03-20T05:50:25.479Z,25.50
2023-03-20T05:53:13.399Z,30.30
2023-03-20T05:55:47.180Z,24.57
2023-03-20T05:58:36.582Z,28.30
2023-03-20T06:01:21.368Z,25.30
2023-03-20T06:04:08.486Z,26.20
2023-03-20T06:06:58.136Z,30.67
2023-03-20T06:09:26.263Z,29.53
2023-03-20T06:11:54.954Z,29.60
2023-03-20T06:14:22.989Z,27.37
2023-03-20T06:16:58.030Z,29.83
2023-03-20T06:19:27.273Z,28.67
2023-03-20T06:21:55.597Z,29.10
2023-03-20T06:24:25.110Z,28.10
2023-03-20T06:26:53.382Z,27.03
2023-03-20T06:29:21.460Z,27.10
2023-03-20T06:31:52.577Z,23.43
2023-03-20T06:34:27.798Z,24.40
2023-03-20T06:36:55.792Z,21.83
2023-03-20T06:39:28.609Z,21.80
2023-03-20T06:41:57.054Z,22.77
2023-03-20T06:44:26.999Z,21.87
2023-03-20T06:47:13.741Z,20.30
2023-03-20T06:49:44.597Z,22.90
2023-03-20T06:52:17.476Z,24.77
2023-03-20T06:54:52.149Z,19.13
2023-03-20T06:57:20.521Z,18.90
2023-03-20T06:59:48.473Z,20.23
2023-03-20T07:02:16.943Z,22.27
2023-03-20T07:04:45.098Z,20.97
2023-03-20T07:07:13.980Z,21.13
2023-03-20T07:09:42.258Z,18.93
2023-03-20T07:12:15.461Z,17.80
2023-03-20T07:14:45.588Z,19.07
2023-03-20T07:17:23.082Z,17.67
2023-03-20T07:19:51.719Z,17.60
2023-03-20T07:22:23.116Z,19.27
2023-03-20T07:24:52.140Z,16.60
2023-03-20T07:27:23.493Z,15.77
2023-03-20T07:29:57.735Z,16.37
2023-03-20T07:32:26.342Z,16.17
2023-03-20T07:34:54.895Z,16.27
2023-03-20T07:37:23.465Z,15.50
2023-03-20T07:40:01.865Z,14.13
2023-03-20T07:42:55.742Z,12.90
2023-03-20T07:45:43.999Z,12.60
2023-03-20T07:48:12.117Z,12.37
2023-03-20T07:50:40.808Z,14.53
2023-03-20T07:53:09.329Z,14.67
2023-03-20T07:55:37.894Z,12.60
2023-03-20T07:58:08.514Z,14.03
2023-03-20T08:00:36.762Z,12.83
2023-03-20T08:03:05.135Z,11.40
2023-03-20T08:05:34.489Z,11.67
2023-03-20T08:08:03.219Z,11.70
2023-03-20T08:10:31.662Z,11.37
2023-03-20T08:12:59.854Z,11.93
2023-03-20T08:15:29.436Z,11.70
2023-03-20T08:17:58.789Z,10.07
2023-03-20T08:20:27.363Z,10.93
2023-03-20T08:22:55.743Z,11.57
2023-03-20T08:25:23.841Z,10.57
2023-03-20T08:27:51.975Z,10.60
2023-03-20T08:30:20.244Z,10.53
2023-03-20T08:32:49.781Z,11.10
2023-03-20T08:35:32.224Z,10.97
2023-03-20T08:38:02.174Z,11.00
2023-03-20T08:40:31.867Z,12.37
2023-03-20T08:43:00.278Z,10.27
2023-03-20T08:45:28.471Z,9.87
2023-03-20T08:47:57.888Z,9.83
2023-03-20T08:50:26.143Z,10.27
2023-03-20T08:52:54.307Z,8.20
2023-03-20T08:55:25.762Z,9.47
2023-03-20T08:57:54.558Z,7.07
2023-03-20T09:00:23.654Z,6.00
2023-03-20T09:02:52.238Z,7.60
2023-03-20T09:05:21.871Z,6.77
2023-03-20T09:07:50.062Z,6.97
2023-03-20T09:10:18.770Z,7.00
2023-03-20T09:12:46.962Z,5.83
2023-03-20T09:15:15.430Z,9.73
2023-03-20T09:17:43.667Z,7.97
2023-03-20T09:20:12.816Z,6.27
2023-03-20T09:22:43.918Z,4.80
2023-03-20T09:25:13.034Z,5.37
2023-03-20T09:27:41.534Z,6.07
2023-03-20T09:30:11.115Z,5.73
2023-03-20T09:32:39.576Z,9.60
2023-03-20T09:35:08.162Z,7.60
2023-03-20T09:37:36.714Z,8.60
2023-03-20T09:40:07.539Z,5.73
2023-03-20T09:42:44.776Z,7.50
2023-03-20T09:45:18.398Z,9.83
2023-03-20T09:47:52.090Z,9.10
2023-03-20T09:50:27.799Z,7.77
2023-03-20T09:52:59.869Z,6.27
2023-03-20T09:55:34.987Z,7.67
2023-03-20T09:58:12.114Z,6.37
2023-03-20T10:00:42.489Z,5.83
2023-03-20T10:03:18.567Z,7.80
2023-03-20T10:05:50.410Z,7.67
2023-03-20T10:08:23.196Z,6.47
2023-03-20T10:10:56.673Z,8.90
2023-03-20T10:13:46.020Z,6.43
2023-03-20T10:16:20.232Z,6.53
2023-03-20T10:18:52.680Z,7.27
2023-03-20T10:21:24.921Z,8.00
2023-03-20T10:23:58.419Z,8.30
2023-03-20T10:26:28.873Z,6.13
2023-03-20T10:28:59.829Z,5.90
2023-03-20T10:31:35.408Z,6.13
2023-03-20T10:34:15.166Z,6.67
2023-03-20T10:36:55.963Z,8.63
2023-03-20T10:39:36.060Z,5.90
2023-03-20T10:42:13.760Z,5.57
2023-03-20T10:44:46.413Z,8.47
2023-03-20T10:47:18.067Z,6.97
2023-03-20T10:49:51.595Z,9.43
2023-03-20T10:52:22.472Z,6.73
2023-03-20T10:54:54.610Z,7.70
2023-03-20T10:57:26.263Z,7.47
2023-03-20T10:59:57.131Z,6.57
2023-03-20T11:02:28.986Z,8.50
2023-03-20T11:04:57.204Z,8.90
2023-03-20T11:07:28.251Z,6.40
2023-03-20T11:10:10.482Z,7.73
2023-03-20T11:12:41.660Z,6.43
2023-03-20T11:15:25.828Z,6.33
2023-03-20T11:17:56.847Z,6.83
2023-03-20T11:20:25.614Z,7.27
2023-03-20T11:23:00.097Z,4.97
2023-03-20T11:25:32.374Z,5.00
2023-03-20T11:28:20.961Z,7.03
2023-03-20T11:31:03.872Z,5.13
2023-03-20T11:33:33.865Z,5.87
2023-03-20T11:36:02.041Z,5.10
2023-03-20T11:38:31.247Z,4.53
2023-03-20T11:40:59.465Z,4.33
2023-03-20T11:43:29.971Z,5.60
2023-03-20T11:45:59.514Z,4.60
2023-03-20T11:48:39.090Z,5.87
2023-03-20T11:51:10.256Z,7.00
2023-03-20T11:53:41.911Z,4.60
2023-03-20T11:56:12.641Z,5.17
2023-03-20T11:58:53.179Z,5.93
2023-03-20T12:01:22.706Z,6.53
2023-03-20T12:03:56.058Z,4.23
2023-03-20T12:06:30.302Z,5.47
2023-03-20T12:09:04.157Z,4.57
2023-03-20T12:11:48.875Z,4.13
2023-03-20T12:14:28.269Z,4.40
2023-03-20T12:17:04.453Z,5.97
2023-03-20T12:19:33.627Z,3.83
2023-03-20T12:22:10.117Z,4.87
2023-03-20T12:24:42.557Z,4.97
2023-03-20T12:27:18.844Z,4.47
2023-03-20T12:29:52.634Z,3.60
2023-03-20T12:32:26.115Z,5.03
2023-03-20T12:34:56.174Z,5.47
2023-03-20T12:37:25.344Z,3.47
2023-03-20T12:39:55.483Z,4.50
2023-03-20T12:42:35.806Z,4.90
2023-03-20T12:45:12.314Z,2.90
2023-03-20T12:47:53.103Z,5.33
2023-03-20T12:50:28.370Z,4.63
2023-03-20T12:53:07.355Z,4.03
2023-03-20T12:55:44.791Z,5.60
2023-03-20T12:58:21.963Z,2.40
2023-03-20T13:00:57.395Z,4.03
2023-03-20T13:03:37.277Z,4.10
2023-03-20T13:06:11.357Z,4.33
2023-03-20T13:09:01.927Z,5.87
2023-03-20T13:11:32.718Z,3.70
2023-03-20T13:14:04.735Z,4.10
2023-03-20T13:16:42.091Z,5.10
2023-03-20T13:19:19.070Z,4.00
2023-03-20T13:21:55.567Z,4.83
2023-03-20T13:24:34.825Z,4.23
2023-03-20T13:27:12.949Z,5.57
2023-03-20T13:29:46.988Z,4.67
2023-03-20T13:32:24.036Z,3.43
2023-03-20T13:35:16.251Z,4.93
2023-03-20T13:37:46.597Z,6.97
2023-03-20T13:40:20.037Z,6.60
2023-03-20T13:42:52.408Z,5.93
2023-03-20T13:45:30.627Z,4.07
2023-03-20T13:48:06.727Z,4.67
2023-03-20T13:50:43.816Z,4.83
2023-03-20T13:53:22.645Z,5.80
2023-03-20T13:55:55.956Z,10.70
2023-03-20T13:58:51.532Z,3.03
2023-03-20T14:01:23.473Z,3.20
2023-03-20T14:03:53.634Z,3.27
2023-03-20T14:06:46.431Z,3.33
2023-03-20T14:09:29.490Z,7.33
2023-03-20T14:12:00.034Z,3.90
2023-03-20T14:14:29.495Z,4.40
2023-03-20T14:17:19.118Z,3.07
2023-03-20T14:19:49.751Z,2.67
2023-03-20T14:22:20.164Z,5.07
2023-03-20T14:24:56.903Z,3.47
2023-03-20T14:27:45.098Z,2.70
2023-03-20T14:30:38.657Z,2.80
2023-03-20T14:33:08.189Z,3.77
2023-03-20T14:35:44.192Z,3.80
2023-03-20T14:38:21.922Z,5.10
2023-03-20T14:40:54.602Z,7.37
2023-03-20T14:43:32.901Z,5.03
2023-03-20T14:46:03.663Z,4.23
2023-03-20T14:48:35.127Z,5.57
2023-03-20T14:51:12.726Z,3.77
2023-03-20T14:53:41.847Z,3.87
2023-03-20T14:56:11.842Z,3.83
2023-03-20T14:58:58.440Z,5.10
2023-03-20T15:01:42.678Z,5.00
2023-03-20T15:04:14.122Z,4.60
2023-03-20T15:06:47.094Z,4.60
2023-03-20T15:09:15.604Z,6.77
2023-03-20T15:11:44.404Z,5.07
2023-03-20T15:14:18.536Z,5.43
2023-03-20T15:16:47.303Z,3.57
2023-03-20T15:19:19.331Z,3.63
2023-03-20T15:21:49.561Z,4.73
2023-03-20T15:24:23.095Z,7.10
2023-03-20T15:26:54.721Z,3.80
2023-03-20T15:29:23.126Z,5.93
2023-03-20T15:32:12.368Z,7.10
2023-03-20T15:34:42.587Z,5.37
2023-03-20T15:37:15.040Z,4.27
2023-03-20T15:39:44.472Z,5.03
2023-03-20T15:42:14.978Z,3.50
2023-03-20T15:44:44.759Z,5.50
2023-03-20T15:47:17.261Z,5.80
2023-03-20T15:49:51.713Z,6.63
2023-03-20T15:52:26.686Z,5.73
2023-03-20T15:55:04.689Z,4.53
2023-03-20T15:57:35.815Z,3.83
2023-03-20T16:00:06.229Z,4.33
2023-03-20T16:02:36.370Z,6.70
2023-03-20T16:05:04.992Z,6.60
2023-03-20T16:07:34.580Z,3.33
2023-03-20T16:10:02.780Z,6.50
2023-03-20T16:12:30.824Z,4.03
2023-03-20T16:14:59.348Z,6.00
2023-03-20T16:17:27.686Z,5.77
2023-03-20T16:19:56.201Z,7.07
2023-03-20T16:22:26.538Z,5.83
2023-03-20T16:24:58.841Z,6.93
2023-03-20T16:27:29.382Z,7.07
2023-03-20T16:29:57.767Z,6.87
2023-03-20T16:32:36.277Z,5.90
2023-03-20T16:35:07.343Z,6.17
2023-03-20T16:37:40.042Z,7.30
2023-03-20T16:40:19.613Z,7.97
2023-03-20T16:42:47.782Z,5.73
2023-03-20T16:45:22.027Z,6.60
2023-03-20T16:47:50.341Z,4.93
2023-03-20T16:50:21.969Z,4.33
2023-03-20T16:52:51.870Z,5.00
2023-03-20T16:55:26.078Z,5.93
2023-03-20T16:57:57.647Z,6.70
2023-03-20T17:00:29.261Z,9.30
2023-03-20T17:03:12.480Z,3.90
2023-03-20T17:05:48.967Z,8.60
2023-03-20T17:08:19.230Z,3.90
2023-03-20T17:10:50.959Z,4.97
2023-03-20T17:13:19.004Z,5.83
2023-03-20T17:15:46.985Z,4.27
2023-03-20T17:18:19.746Z,6.23
2023-03-20T17:20:47.779Z,5.87
2023-03-20T17:23:19.162Z,5.70
2023-03-20T17:25:49.153Z,5.87
2023-03-20T17:28:21.004Z,6.40
2023-03-20T17:30:50.321Z,4.97
2023-03-20T17:33:20.934Z,4.17
2023-03-20T17:35:49.710Z,7.30
2023-03-20T17:38:19.932Z,7.37
2023-03-20T17:40:49.922Z,6.60
2023-03-20T17:43:18.856Z,4.37
2023-03-20T17:45:50.007Z,8.33
2023-03-20T17:48:20.590Z,5.40
2023-03-20T17:50:51.307Z,6.77
2023-03-20T17:53:21.208Z,5.37
2023-03-20T17:55:50.833Z,7.03
2023-03-20T17:58:21.103Z,6.60
2023-03-20T18:00:49.424Z,7.20
2023-03-20T18:03:18.197Z,7.47
2023-03-20T18:05:46.638Z,5.33
2023-03-20T18:08:16.113Z,4.40
2023-03-20T18:10:44.732Z,7.63
2023-03-20T18:13:14.423Z,6.83
2023-03-20T18:15:44.245Z,7.97
2023-03-20T18:18:12.373Z,7.87
2023-03-20T18:20:41.300Z,6.73
2023-03-20T18:23:09.587Z,5.43
2023-03-20T18:25:37.642Z,5.63
2023-03-20T18:28:07.194Z,7.20
2023-03-20T18:30:39.000Z,5.70
2023-03-20T18:33:07.576Z,6.77
2023-03-20T18:35:36.570Z,5.53
2023-03-20T18:38:05.190Z,6.23
2023-03-20T18:40:35.329Z,7.33
2023-03-20T18:43:03.981Z,5.23
2023-03-20T18:45:32.517Z,5.47
2023-03-20T18:48:03.841Z,6.90
2023-03-20T18:50:36.518Z,8.23
2023-03-20T18:53:06.624Z,4.47
2023-03-20T18:55:35.624Z,7.20
2023-03-20T18:58:04.225Z,7.17
2023-03-20T19:00:36.097Z,6.20
2023-03-20T19:03:05.846Z,7.07
2023-03-20T19:05:34.288Z,4.17
2023-03-20T19:08:03.327Z,8.33
2023-03-20T19:10:34.442Z,6.77
2023-03-20T19:13:03.376Z,6.27
2023-03-20T19:15:35.435Z,4.67
2023-03-20T19:18:05.554Z,4.57
2023-03-20T19:20:36.190Z,5.20
2023-03-20T19:23:05.476Z,7.17
2023-03-20T19:25:33.884Z,5.00
2023-03-20T19:28:02.236Z,6.53
2023-03-20T19:30:32.550Z,7.07
2023-03-20T19:33:01.030Z,7.47
2023-03-20T19:35:54.566Z,4.70
2023-03-20T19:38:21.291Z,8.03
2023-03-20T19:40:51.483Z,5.37
2023-03-20T19:43:21.386Z,5.77
2023-03-20T19:45:56.464Z,6.70
2023-03-20T19:48:27.932Z,6.13
2023-03-20T19:50:58.241Z,7.63
2023-03-20T19:53:29.415Z,5.63
2023-03-20T19:55:57.976Z,4.27
2023-03-20T19:58:26.128Z,5.43
2023-03-20T20:00:57.671Z,5.33
2023-03-20T20:03:39.902Z,6.23
2023-03-20T20:06:09.877Z,5.73
2023-03-20T20:08:48.036Z,7.03
2023-03-20T20:11:16.952Z,5.83
2023-03-20T20:14:07.021Z,6.13
2023-03-20T20:16:35.242Z,6.73
2023-03-20T20:19:03.549Z,9.57
2023-03-20T20:24:21.621Z,6.50
2023-03-20T20:26:55.547Z,5.67
2023-03-20T20:29:28.254Z,4.57
2023-03-20T20:31:57.991Z,6.13
2023-03-20T20:40:04.614Z,5.43
2023-03-20T20:42:32.688Z,5.17
2023-03-20T20:45:01.004Z,6.63
2023-03-20T20:47:28.978Z,6.60
2023-03-20T20:49:57.778Z,6.33
2023-03-20T20:52:27.265Z,6.50
2023-03-20T20:54:55.271Z,4.53
2023-03-20T20:57:23.168Z,6.30
2023-03-20T20:59:54.145Z,6.13
2023-03-20T21:02:22.414Z,8.53
2023-03-20T21:04:50.547Z,4.13
2023-03-20T21:07:18.669Z,6.77
2023-03-20T21:09:48.493Z,6.00
2023-03-20T21:12:33.446Z,4.60
2023-03-20T21:15:02.318Z,5.73
2023-03-20T21:17:30.915Z,7.60
2023-03-20T21:19:59.108Z,4.53
2023-03-20T21:22:27.227Z,6.93
2023-03-20T21:25:13.096Z,6.73
2023-03-20T21:27:42.325Z,5.63
2023-03-20T21:30:11.559Z,8.37
2023-03-20T21:32:40.011Z,4.90
2023-03-20T21:35:09.356Z,6.40
2023-03-20T21:40:27.529Z,6.50
2023-03-20T21:42:57.818Z,5.57
2023-03-20T21:46:18.697Z,5.33
2023-03-20T21:48:48.154Z,5.97
2023-03-20T21:54:46.121Z,6.57
2023-03-20T21:57:23.290Z,7.20
2023-03-20T22:02:23.471Z,6.37
2023-03-20T22:05:54.896Z,6.33
2023-03-20T22:14:19.013Z,4.70
2023-03-20T22:34:05.116Z,5.97
2023-03-20T22:47:17.920Z,8.10
2023-03-20T22:49:47.822Z,6.63
2023-03-20T22:52:31.742Z,6.03
2023-03-20T22:55:09.600Z,6.10
2023-03-20T22:57:45.491Z,5.90
2023-03-20T23:00:19.333Z,5.67
2023-03-20T23:02:48.839Z,6.83
2023-03-20T23:05:17.150Z,5.30
2023-03-20T23:07:45.175Z,5.60
2023-03-20T23:10:14.296Z,8.97
2023-03-20T23:12:44.053Z,6.33
2023-03-20T23:15:12.773Z,7.10
2023-03-20T23:17:40.877Z,7.83
2023-03-20T23:20:15.007Z,5.67
2023-03-20T23:22:46.175Z,6.20
2023-03-20T23:25:21.004Z,7.33
2023-03-20T23:27:59.773Z,4.37
2023-03-20T23:30:37.852Z,6.20
2023-03-20T23:33:11.989Z,7.27
2023-03-20T23:35:41.522Z,9.53
2023-03-20T23:38:09.506Z,4.70
2023-03-20T23:40:37.882Z,6.53
2023-03-20T23:43:06.089Z,6.27
2023-03-20T23:45:34.110Z,5.53
2023-03-20T23:48:02.078Z,6.97
2023-03-20T23:50:42.653Z,6.87
2023-03-20T23:53:20.546Z,6.57
2023-03-20T23:55:50.290Z,7.60
2023-03-20T23:58:19.272Z,5.60
